sensor_id;sensor_type;location;lat;lon;timestamp;P1;durP1;ratioP1;P2;durP2;ratioP2
20623;SDS011;10471;42.736;23.346;2023-03-15T00:00:03;16.33;;;8.50;;
20623;SDS011;10471;42.736;23.346;2023-03-15T00:02:31;17.10;;;8.00;;
20623;SDS011;10471;42.736;23.346;2023-03-15T00:04:56;14.93;;;8.00;;
20623;SDS011;10471;42.736;23.346;2023-03-15T00:07:22;14.13;;;6.50;;
20623;SDS011;10471;42.736;23.346;2023-03-15T00:09:51;10.53;;;6.63;;
20623;SDS011;10471;42.736;23.346;2023-03-15T00:12:17;17.33;;;7.20;;
20623;SDS011;10471;42.736;23.346;2023-03-15T00:14:43;12.27;;;6.70;;
20623;SDS011;10471;42.736;23.346;2023-03-15T00:17:08;10.07;;;6.17;;
20623;SDS011;10471;42.736;23.346;2023-03-15T00:19:33;8.00;;;6.23;;
20623;SDS011;10471;42.736;23.346;2023-03-15T00:21:59;8.57;;;5.90;;
20623;SDS011;10471;42.736;23.346;2023-03-15T00:24:25;12.07;;;6.57;;
20623;SDS011;10471;42.736;23.346;2023-03-15T00:26:50;16.00;;;9.23;;
20623;SDS011;10471;42.736;23.346;2023-03-15T00:29:16;12.53;;;8.10;;
20623;SDS011;10471;42.736;23.346;2023-03-15T00:31:41;18.00;;;11.10;;
20623;SDS011;10471;42.736;23.346;2023-03-15T00:34:06;14.57;;;9.13;;
20623;SDS011;10471;42.736;23.346;2023-03-15T00:36:32;12.37;;;8.17;;
20623;SDS011;10471;42.736;23.346;2023-03-15T00:38:57;11.80;;;7.33;;
20623;SDS011;10471;42.736;23.346;2023-03-15T00:41:23;13.83;;;6.70;;
20623;SDS011;10471;42.736;23.346;2023-03-15T00:43:49;13.70;;;6.53;;
20623;SDS011;10471;42.736;23.346;2023-03-15T00:46:16;10.97;;;6.03;;
20623;SDS011;10471;42.736;23.346;2023-03-15T00:48:42;12.87;;;5.93;;
20623;SDS011;10471;42.736;23.346;2023-03-15T00:51:09;10.33;;;6.07;;
20623;SDS011;10471;42.736;23.346;2023-03-15T00:53:36;10.17;;;6.37;;
20623;SDS011;10471;42.736;23.346;2023-03-15T00:56:04;8.60;;;5.80;;
20623;SDS011;10471;42.736;23.346;2023-03-15T00:58:30;11.33;;;6.10;;
20623;SDS011;10471;42.736;23.346;2023-03-15T01:00:56;8.67;;;5.60;;
20623;SDS011;10471;42.736;23.346;2023-03-15T01:03:21;8.67;;;5.67;;
20623;SDS011;10471;42.736;23.346;2023-03-15T01:05:47;10.90;;;5.80;;
20623;SDS011;10471;42.736;23.346;2023-03-15T01:08:12;9.50;;;5.30;;
20623;SDS011;10471;42.736;23.346;2023-03-15T01:10:38;8.30;;;5.50;;
20623;SDS011;10471;42.736;23.346;2023-03-15T01:13:03;8.90;;;6.03;;
20623;SDS011;10471;42.736;23.346;2023-03-15T01:15:28;25.57;;;10.40;;
20623;SDS011;10471;42.736;23.346;2023-03-15T01:17:54;19.10;;;8.57;;
20623;SDS011;10471;42.736;23.346;2023-03-15T01:20:20;23.33;;;10.20;;
20623;SDS011;10471;42.736;23.346;2023-03-15T01:22:45;21.33;;;10.23;;
20623;SDS011;10471;42.736;23.346;2023-03-15T01:25:10;31.80;;;13.60;;
20623;SDS011;10471;42.736;23.346;2023-03-15T01:27:36;25.20;;;11.80;;
20623;SDS011;10471;42.736;23.346;2023-03-15T01:30:01;24.53;;;10.53;;
20623;SDS011;10471;42.736;23.346;2023-03-15T01:32:27;27.00;;;11.13;;
20623;SDS011;10471;42.736;23.346;2023-03-15T01:34:53;22.57;;;11.93;;
20623;SDS011;10471;42.736;23.346;2023-03-15T01:37:18;29.37;;;14.03;;
20623;SDS011;10471;42.736;23.346;2023-03-15T01:39:44;35.70;;;17.03;;
20623;SDS011;10471;42.736;23.346;2023-03-15T01:42:09;27.27;;;15.23;;
20623;SDS011;10471;42.736;23.346;2023-03-15T01:44:52;22.30;;;11.20;;
20623;SDS011;10471;42.736;23.346;2023-03-15T01:47:19;30.57;;;17.23;;
20623;SDS011;10471;42.736;23.346;2023-03-15T01:49:49;29.80;;;16.73;;
20623;SDS011;10471;42.736;23.346;2023-03-15T01:52:23;25.37;;;13.13;;
20623;SDS011;10471;42.736;23.346;2023-03-15T01:54:58;24.37;;;12.97;;
20623;SDS011;10471;42.736;23.346;2023-03-15T01:57:34;28.20;;;15.37;;
20623;SDS011;10471;42.736;23.346;2023-03-15T02:00:06;30.10;;;14.50;;
20623;SDS011;10471;42.736;23.346;2023-03-15T02:02:36;22.40;;;13.27;;
20623;SDS011;10471;42.736;23.346;2023-03-15T02:05:10;17.37;;;9.40;;
20623;SDS011;10471;42.736;23.346;2023-03-15T02:07:41;17.93;;;9.60;;
20623;SDS011;10471;42.736;23.346;2023-03-15T02:10:15;17.13;;;9.77;;
20623;SDS011;10471;42.736;23.346;2023-03-15T02:12:46;13.50;;;8.10;;
20623;SDS011;10471;42.736;23.346;2023-03-15T02:15:16;18.00;;;9.17;;
20623;SDS011;10471;42.736;23.346;2023-03-15T02:17:43;15.90;;;8.40;;
20623;SDS011;10471;42.736;23.346;2023-03-15T02:20:13;18.63;;;9.10;;
20623;SDS011;10471;42.736;23.346;2023-03-15T02:23:10;25.93;;;13.30;;
20623;SDS011;10471;42.736;23.346;2023-03-15T02:26:02;19.50;;;10.03;;
20623;SDS011;10471;42.736;23.346;2023-03-15T02:28:42;18.97;;;10.67;;
20623;SDS011;10471;42.736;23.346;2023-03-15T02:31:08;23.03;;;10.90;;
20623;SDS011;10471;42.736;23.346;2023-03-15T02:33:39;22.00;;;12.40;;
20623;SDS011;10471;42.736;23.346;2023-03-15T02:38:42;24.67;;;12.87;;
20623;SDS011;10471;42.736;23.346;2023-03-15T02:41:08;52.50;;;24.10;;
20623;SDS011;10471;42.736;23.346;2023-03-15T02:43:34;95.10;;;46.37;;
20623;SDS011;10471;42.736;23.346;2023-03-15T02:46:00;34.23;;;18.27;;
20623;SDS011;10471;42.736;23.346;2023-03-15T02:48:27;28.90;;;19.37;;
20623;SDS011;10471;42.736;23.346;2023-03-15T02:50:56;32.43;;;18.17;;
20623;SDS011;10471;42.736;23.346;2023-03-15T02:53:21;39.80;;;20.87;;
20623;SDS011;10471;42.736;23.346;2023-03-15T02:55:46;39.87;;;19.83;;
20623;SDS011;10471;42.736;23.346;2023-03-15T02:58:12;37.27;;;19.80;;
20623;SDS011;10471;42.736;23.346;2023-03-15T03:00:37;37.03;;;20.33;;
20623;SDS011;10471;42.736;23.346;2023-03-15T03:03:03;38.40;;;19.60;;
20623;SDS011;10471;42.736;23.346;2023-03-15T03:05:28;37.13;;;19.03;;
20623;SDS011;10471;42.736;23.346;2023-03-15T03:07:54;34.87;;;17.30;;
20623;SDS011;10471;42.736;23.346;2023-03-15T03:10:19;33.90;;;15.90;;
20623;SDS011;10471;42.736;23.346;2023-03-15T03:12:45;28.07;;;14.67;;
20623;SDS011;10471;42.736;23.346;2023-03-15T03:15:10;26.03;;;14.30;;
20623;SDS011;10471;42.736;23.346;2023-03-15T03:17:36;25.50;;;14.30;;
20623;SDS011;10471;42.736;23.346;2023-03-15T03:20:03;22.03;;;13.20;;
20623;SDS011;10471;42.736;23.346;2023-03-15T03:22:33;21.17;;;12.77;;
20623;SDS011;10471;42.736;23.346;2023-03-15T03:24:59;18.60;;;10.80;;
20623;SDS011;10471;42.736;23.346;2023-03-15T03:27:25;17.37;;;10.20;;
20623;SDS011;10471;42.736;23.346;2023-03-15T03:29:50;14.63;;;9.00;;
20623;SDS011;10471;42.736;23.346;2023-03-15T03:32:16;19.63;;;9.00;;
20623;SDS011;10471;42.736;23.346;2023-03-15T03:34:41;16.60;;;8.97;;
20623;SDS011;10471;42.736;23.346;2023-03-15T03:37:12;16.07;;;9.43;;
20623;SDS011;10471;42.736;23.346;2023-03-15T03:39:43;14.10;;;7.80;;
20623;SDS011;10471;42.736;23.346;2023-03-15T03:42:09;13.50;;;7.90;;
20623;SDS011;10471;42.736;23.346;2023-03-15T03:44:34;15.97;;;7.13;;
20623;SDS011;10471;42.736;23.346;2023-03-15T03:47:00;11.00;;;7.20;;
20623;SDS011;10471;42.736;23.346;2023-03-15T03:49:25;12.90;;;6.93;;
20623;SDS011;10471;42.736;23.346;2023-03-15T03:51:51;12.03;;;6.20;;
20623;SDS011;10471;42.736;23.346;2023-03-15T03:54:16;10.27;;;6.37;;
20623;SDS011;10471;42.736;23.346;2023-03-15T03:56:44;10.27;;;6.30;;
20623;SDS011;10471;42.736;23.346;2023-03-15T03:59:10;11.57;;;7.00;;
20623;SDS011;10471;42.736;23.346;2023-03-15T04:01:35;14.67;;;8.13;;
20623;SDS011;10471;42.736;23.346;2023-03-15T04:04:00;11.40;;;7.07;;
20623;SDS011;10471;42.736;23.346;2023-03-15T04:06:26;13.10;;;6.97;;
20623;SDS011;10471;42.736;23.346;2023-03-15T04:08:51;12.70;;;7.23;;
20623;SDS011;10471;42.736;23.346;2023-03-15T04:11:17;12.07;;;7.13;;
20623;SDS011;10471;42.736;23.346;2023-03-15T04:13:42;10.80;;;6.63;;
20623;SDS011;10471;42.736;23.346;2023-03-15T04:16:09;10.20;;;6.10;;
20623;SDS011;10471;42.736;23.346;2023-03-15T04:18:34;13.43;;;6.50;;
20623;SDS011;10471;42.736;23.346;2023-03-15T04:21:00;9.50;;;5.90;;
20623;SDS011;10471;42.736;23.346;2023-03-15T04:23:25;13.33;;;6.17;;
20623;SDS011;10471;42.736;23.346;2023-03-15T04:25:51;9.90;;;6.07;;
20623;SDS011;10471;42.736;23.346;2023-03-15T04:28:19;9.53;;;6.03;;
20623;SDS011;10471;42.736;23.346;2023-03-15T04:30:45;14.63;;;7.47;;
20623;SDS011;10471;42.736;23.346;2023-03-15T04:33:12;14.40;;;7.63;;
20623;SDS011;10471;42.736;23.346;2023-03-15T04:35:37;15.03;;;6.90;;
20623;SDS011;10471;42.736;23.346;2023-03-15T04:38:03;15.27;;;7.70;;
20623;SDS011;10471;42.736;23.346;2023-03-15T04:40:30;14.10;;;8.03;;
20623;SDS011;10471;42.736;23.346;2023-03-15T04:42:59;14.03;;;7.80;;
20623;SDS011;10471;42.736;23.346;2023-03-15T04:45:26;16.57;;;7.97;;
20623;SDS011;10471;42.736;23.346;2023-03-15T04:47:52;18.67;;;8.30;;
20623;SDS011;10471;42.736;23.346;2023-03-15T04:50:18;19.07;;;7.80;;
20623;SDS011;10471;42.736;23.346;2023-03-15T04:52:44;15.03;;;7.87;;
20623;SDS011;10471;42.736;23.346;2023-03-15T04:55:10;18.13;;;8.23;;
20623;SDS011;10471;42.736;23.346;2023-03-15T04:57:35;14.57;;;7.97;;
20623;SDS011;10471;42.736;23.346;2023-03-15T05:00:01;14.63;;;7.10;;
20623;SDS011;10471;42.736;23.346;2023-03-15T05:02:31;18.50;;;6.90;;
20623;SDS011;10471;42.736;23.346;2023-03-15T05:04:56;11.50;;;6.80;;
20623;SDS011;10471;42.736;23.346;2023-03-15T05:07:22;18.47;;;7.73;;
20623;SDS011;10471;42.736;23.346;2023-03-15T05:09:47;14.87;;;7.43;;
20623;SDS011;10471;42.736;23.346;2023-03-15T05:12:13;15.87;;;7.30;;
20623;SDS011;10471;42.736;23.346;2023-03-15T05:14:38;11.23;;;6.47;;
20623;SDS011;10471;42.736;23.346;2023-03-15T05:17:03;10.10;;;4.83;;
20623;SDS011;10471;42.736;23.346;2023-03-15T05:19:29;8.40;;;4.90;;
20623;SDS011;10471;42.736;23.346;2023-03-15T05:21:58;10.43;;;5.00;;
20623;SDS011;10471;42.736;23.346;2023-03-15T05:24:27;7.50;;;4.50;;
20623;SDS011;10471;42.736;23.346;2023-03-15T05:26:53;9.70;;;4.70;;
20623;SDS011;10471;42.736;23.346;2023-03-15T05:29:20;8.63;;;5.57;;
20623;SDS011;10471;42.736;23.346;2023-03-15T05:31:47;7.83;;;5.00;;
20623;SDS011;10471;42.736;23.346;2023-03-15T05:34:12;9.87;;;5.07;;
20623;SDS011;10471;42.736;23.346;2023-03-15T05:36:38;8.87;;;4.73;;
20623;SDS011;10471;42.736;23.346;2023-03-15T05:39:04;8.40;;;5.43;;
20623;SDS011;10471;42.736;23.346;2023-03-15T05:41:30;8.47;;;5.07;;
20623;SDS011;10471;42.736;23.346;2023-03-15T05:43:55;10.53;;;5.20;;
20623;SDS011;10471;42.736;23.346;2023-03-15T05:46:21;7.73;;;4.83;;
20623;SDS011;10471;42.736;23.346;2023-03-15T05:48:46;7.67;;;5.00;;
20623;SDS011;10471;42.736;23.346;2023-03-15T05:51:12;11.83;;;5.60;;
20623;SDS011;10471;42.736;23.346;2023-03-15T05:53:38;11.30;;;4.87;;
20623;SDS011;10471;42.736;23.346;2023-03-15T05:56:03;7.60;;;4.40;;
20623;SDS011;10471;42.736;23.346;2023-03-15T05:58:28;7.03;;;4.70;;
20623;SDS011;10471;42.736;23.346;2023-03-15T06:00:54;8.67;;;4.50;;
20623;SDS011;10471;42.736;23.346;2023-03-15T06:03:19;8.53;;;4.70;;
20623;SDS011;10471;42.736;23.346;2023-03-15T06:05:45;8.80;;;4.93;;
20623;SDS011;10471;42.736;23.346;2023-03-15T06:08:10;8.97;;;4.60;;
20623;SDS011;10471;42.736;23.346;2023-03-15T06:10:35;6.70;;;5.00;;
20623;SDS011;10471;42.736;23.346;2023-03-15T06:13:01;10.47;;;4.60;;
20623;SDS011;10471;42.736;23.346;2023-03-15T06:15:27;9.33;;;5.10;;
20623;SDS011;10471;42.736;23.346;2023-03-15T06:17:52;9.90;;;5.20;;
20623;SDS011;10471;42.736;23.346;2023-03-15T06:20:17;8.30;;;4.67;;
20623;SDS011;10471;42.736;23.346;2023-03-15T06:22:43;10.70;;;4.93;;
20623;SDS011;10471;42.736;23.346;2023-03-15T06:25:09;8.13;;;4.10;;
20623;SDS011;10471;42.736;23.346;2023-03-15T06:27:35;9.73;;;5.00;;
20623;SDS011;10471;42.736;23.346;2023-03-15T06:30:01;9.23;;;4.57;;
20623;SDS011;10471;42.736;23.346;2023-03-15T06:32:26;8.87;;;4.30;;
20623;SDS011;10471;42.736;23.346;2023-03-15T06:34:52;8.70;;;4.53;;
20623;SDS011;10471;42.736;23.346;2023-03-15T06:37:17;10.33;;;4.70;;
20623;SDS011;10471;42.736;23.346;2023-03-15T06:39:43;10.10;;;4.90;;
20623;SDS011;10471;42.736;23.346;2023-03-15T06:42:09;8.77;;;4.87;;
20623;SDS011;10471;42.736;23.346;2023-03-15T06:44:37;11.50;;;5.00;;
20623;SDS011;10471;42.736;23.346;2023-03-15T06:47:03;10.23;;;4.80;;
20623;SDS011;10471;42.736;23.346;2023-03-15T06:49:28;7.07;;;4.33;;
20623;SDS011;10471;42.736;23.346;2023-03-15T06:51:54;9.03;;;4.90;;
20623;SDS011;10471;42.736;23.346;2023-03-15T06:54:20;9.60;;;4.77;;
20623;SDS011;10471;42.736;23.346;2023-03-15T06:56:45;5.70;;;4.10;;
20623;SDS011;10471;42.736;23.346;2023-03-15T06:59:11;10.30;;;5.17;;
20623;SDS011;10471;42.736;23.346;2023-03-15T07:01:36;10.30;;;4.80;;
20623;SDS011;10471;42.736;23.346;2023-03-15T07:04:01;9.40;;;5.10;;
20623;SDS011;10471;42.736;23.346;2023-03-15T07:06:27;6.67;;;4.93;;
20623;SDS011;10471;42.736;23.346;2023-03-15T07:08:53;9.20;;;4.90;;
20623;SDS011;10471;42.736;23.346;2023-03-15T07:11:19;10.10;;;4.60;;
20623;SDS011;10471;42.736;23.346;2023-03-15T07:13:44;6.10;;;4.50;;
20623;SDS011;10471;42.736;23.346;2023-03-15T07:16:10;7.83;;;4.40;;
20623;SDS011;10471;42.736;23.346;2023-03-15T07:18:36;7.83;;;4.00;;
20623;SDS011;10471;42.736;23.346;2023-03-15T07:21:02;16.37;;;10.37;;
20623;SDS011;10471;42.736;23.346;2023-03-15T07:23:28;11.17;;;5.80;;
20623;SDS011;10471;42.736;23.346;2023-03-15T07:25:54;8.53;;;4.30;;
20623;SDS011;10471;42.736;23.346;2023-03-15T07:28:20;8.77;;;4.47;;
20623;SDS011;10471;42.736;23.346;2023-03-15T07:30:53;8.70;;;3.87;;
20623;SDS011;10471;42.736;23.346;2023-03-15T07:33:20;7.83;;;3.87;;
20623;SDS011;10471;42.736;23.346;2023-03-15T07:35:47;8.17;;;4.23;;
20623;SDS011;10471;42.736;23.346;2023-03-15T07:38:14;9.97;;;4.53;;
20623;SDS011;10471;42.736;23.346;2023-03-15T07:40:39;6.83;;;3.47;;
20623;SDS011;10471;42.736;23.346;2023-03-15T07:43:04;6.00;;;3.83;;
20623;SDS011;10471;42.736;23.346;2023-03-15T07:45:30;8.43;;;3.80;;
20623;SDS011;10471;42.736;23.346;2023-03-15T07:47:56;8.17;;;4.00;;
20623;SDS011;10471;42.736;23.346;2023-03-15T07:50:21;10.07;;;4.33;;
20623;SDS011;10471;42.736;23.346;2023-03-15T07:52:46;5.17;;;4.00;;
20623;SDS011;10471;42.736;23.346;2023-03-15T07:55:12;10.70;;;4.23;;
20623;SDS011;10471;42.736;23.346;2023-03-15T07:57:37;5.67;;;3.90;;
20623;SDS011;10471;42.736;23.346;2023-03-15T08:00:02;5.10;;;3.17;;
20623;SDS011;10471;42.736;23.346;2023-03-15T08:02:29;6.50;;;3.33;;
20623;SDS011;10471;42.736;23.346;2023-03-15T08:04:55;6.53;;;3.57;;
20623;SDS011;10471;42.736;23.346;2023-03-15T08:07:20;9.17;;;3.37;;
20623;SDS011;10471;42.736;23.346;2023-03-15T08:09:45;4.80;;;3.13;;
20623;SDS011;10471;42.736;23.346;2023-03-15T08:12:12;6.87;;;3.00;;
20623;SDS011;10471;42.736;23.346;2023-03-15T08:14:37;9.77;;;3.83;;
20623;SDS011;10471;42.736;23.346;2023-03-15T08:17:03;8.70;;;3.87;;
20623;SDS011;10471;42.736;23.346;2023-03-15T08:19:28;7.57;;;3.70;;
20623;SDS011;10471;42.736;23.346;2023-03-15T08:21:54;8.53;;;4.40;;
20623;SDS011;10471;42.736;23.346;2023-03-15T08:24:19;8.23;;;4.30;;
20623;SDS011;10471;42.736;23.346;2023-03-15T08:26:45;7.07;;;3.77;;
20623;SDS011;10471;42.736;23.346;2023-03-15T08:29:11;7.70;;;4.37;;
20623;SDS011;10471;42.736;23.346;2023-03-15T08:31:37;7.70;;;4.10;;
20623;SDS011;10471;42.736;23.346;2023-03-15T08:34:02;6.23;;;4.00;;
20623;SDS011;10471;42.736;23.346;2023-03-15T08:36:28;8.20;;;4.37;;
20623;SDS011;10471;42.736;23.346;2023-03-15T08:38:53;8.10;;;4.53;;
20623;SDS011;10471;42.736;23.346;2023-03-15T08:41:19;10.67;;;5.40;;
20623;SDS011;10471;42.736;23.346;2023-03-15T08:43:44;8.67;;;4.13;;
20623;SDS011;10471;42.736;23.346;2023-03-15T08:46:09;9.67;;;5.00;;
20623;SDS011;10471;42.736;23.346;2023-03-15T08:48:35;8.53;;;5.70;;
20623;SDS011;10471;42.736;23.346;2023-03-15T08:51:01;7.10;;;4.23;;
20623;SDS011;10471;42.736;23.346;2023-03-15T08:53:28;8.17;;;4.20;;
20623;SDS011;10471;42.736;23.346;2023-03-15T08:55:54;7.33;;;3.87;;
20623;SDS011;10471;42.736;23.346;2023-03-15T08:58:20;5.43;;;3.77;;
20623;SDS011;10471;42.736;23.346;2023-03-15T09:00:47;6.47;;;3.33;;
20623;SDS011;10471;42.736;23.346;2023-03-15T09:03:13;17.67;;;9.80;;
20623;SDS011;10471;42.736;23.346;2023-03-15T09:05:40;9.00;;;3.63;;
20623;SDS011;10471;42.736;23.346;2023-03-15T09:08:05;8.47;;;3.70;;
20623;SDS011;10471;42.736;23.346;2023-03-15T09:10:30;6.43;;;4.30;;
20623;SDS011;10471;42.736;23.346;2023-03-15T09:12:56;5.60;;;3.27;;
20623;SDS011;10471;42.736;23.346;2023-03-15T09:15:21;5.93;;;3.30;;
20623;SDS011;10471;42.736;23.346;2023-03-15T09:17:47;9.07;;;3.50;;
20623;SDS011;10471;42.736;23.346;2023-03-15T09:20:14;6.93;;;3.50;;
20623;SDS011;10471;42.736;23.346;2023-03-15T09:22:43;6.90;;;3.63;;
20623;SDS011;10471;42.736;23.346;2023-03-15T09:25:13;6.93;;;3.30;;
20623;SDS011;10471;42.736;23.346;2023-03-15T09:27:38;6.80;;;3.77;;
20623;SDS011;10471;42.736;23.346;2023-03-15T09:30:04;11.07;;;3.70;;
20623;SDS011;10471;42.736;23.346;2023-03-15T09:32:30;6.27;;;3.43;;
20623;SDS011;10471;42.736;23.346;2023-03-15T09:35:00;10.17;;;6.30;;
20623;SDS011;10471;42.736;23.346;2023-03-15T09:37:26;8.17;;;3.77;;
20623;SDS011;10471;42.736;23.346;2023-03-15T09:39:52;6.63;;;4.10;;
20623;SDS011;10471;42.736;23.346;2023-03-15T09:42:21;7.83;;;3.87;;
20623;SDS011;10471;42.736;23.346;2023-03-15T09:45:12;5.83;;;3.53;;
20623;SDS011;10471;42.736;23.346;2023-03-15T09:48:09;6.37;;;3.87;;
20623;SDS011;10471;42.736;23.346;2023-03-15T09:53:26;7.63;;;3.80;;
20623;SDS011;10471;42.736;23.346;2023-03-15T09:55:57;7.53;;;4.47;;
20623;SDS011;10471;42.736;23.346;2023-03-15T10:00:55;8.83;;;4.43;;
20623;SDS011;10471;42.736;23.346;2023-03-15T10:03:30;6.33;;;3.90;;
20623;SDS011;10471;42.736;23.346;2023-03-15T10:06:17;7.83;;;3.90;;
20623;SDS011;10471;42.736;23.346;2023-03-15T10:08:49;9.67;;;5.00;;
20623;SDS011;10471;42.736;23.346;2023-03-15T10:16:39;6.80;;;4.00;;
20623;SDS011;10471;42.736;23.346;2023-03-15T10:24:45;8.23;;;4.37;;
20623;SDS011;10471;42.736;23.346;2023-03-15T10:27:37;9.37;;;4.53;;
20623;SDS011;10471;42.736;23.346;2023-03-15T10:30:19;7.23;;;4.67;;
20623;SDS011;10471;42.736;23.346;2023-03-15T10:35:45;6.93;;;4.20;;
20623;SDS011;10471;42.736;23.346;2023-03-15T10:38:17;8.47;;;4.40;;
20623;SDS011;10471;42.736;23.346;2023-03-15T10:40:51;6.40;;;4.77;;
20623;SDS011;10471;42.736;23.346;2023-03-15T10:43:18;7.80;;;5.03;;
20623;SDS011;10471;42.736;23.346;2023-03-15T10:46:31;10.47;;;4.90;;
20623;SDS011;10471;42.736;23.346;2023-03-15T10:48:37;13.10;;;4.10;;
20623;SDS011;10471;42.736;23.346;2023-03-15T10:51:26;7.40;;;4.67;;
20623;SDS011;10471;42.736;23.346;2023-03-15T10:54:14;7.53;;;4.20;;
20623;SDS011;10471;42.736;23.346;2023-03-15T10:59:24;8.00;;;4.43;;
20623;SDS011;10471;42.736;23.346;2023-03-15T11:01:52;6.63;;;4.53;;
20623;SDS011;10471;42.736;23.346;2023-03-15T11:04:32;8.53;;;5.00;;
20623;SDS011;10471;42.736;23.346;2023-03-15T11:07:02;10.07;;;4.50;;
20623;SDS011;10471;42.736;23.346;2023-03-15T11:09:41;12.53;;;4.97;;
20623;SDS011;10471;42.736;23.346;2023-03-15T11:12:11;8.23;;;4.67;;
20623;SDS011;10471;42.736;23.346;2023-03-15T11:14:41;8.73;;;4.70;;
20623;SDS011;10471;42.736;23.346;2023-03-15T11:17:16;8.40;;;4.50;;
20623;SDS011;10471;42.736;23.346;2023-03-15T11:19:46;7.57;;;4.93;;
20623;SDS011;10471;42.736;23.346;2023-03-15T11:22:17;7.60;;;4.63;;
20623;SDS011;10471;42.736;23.346;2023-03-15T11:24:43;9.27;;;4.50;;
20623;SDS011;10471;42.736;23.346;2023-03-15T11:27:13;8.27;;;4.87;;
20623;SDS011;10471;42.736;23.346;2023-03-15T11:29:42;13.10;;;5.30;;
20623;SDS011;10471;42.736;23.346;2023-03-15T11:32:13;8.63;;;4.90;;
20623;SDS011;10471;42.736;23.346;2023-03-15T11:34:53;8.73;;;5.70;;
20623;SDS011;10471;42.736;23.346;2023-03-15T11:37:35;12.13;;;5.30;;
20623;SDS011;10471;42.736;23.346;2023-03-15T11:47:53;8.53;;;5.03;;
20623;SDS011;10471;42.736;23.346;2023-03-15T11:50:22;14.47;;;7.90;;
20623;SDS011;10471;42.736;23.346;2023-03-15T11:52:51;15.50;;;8.07;;
20623;SDS011;10471;42.736;23.346;2023-03-15T11:55:18;12.30;;;6.13;;
20623;SDS011;10471;42.736;23.346;2023-03-15T11:57:48;11.37;;;5.93;;
20623;SDS011;10471;42.736;23.346;2023-03-15T12:02:57;10.63;;;5.60;;
20623;SDS011;10471;42.736;23.346;2023-03-15T12:05:47;11.70;;;6.40;;
20623;SDS011;10471;42.736;23.346;2023-03-15T12:08:21;13.33;;;6.17;;
20623;SDS011;10471;42.736;23.346;2023-03-15T12:10:52;10.57;;;6.20;;
20623;SDS011;10471;42.736;23.346;2023-03-15T12:13:19;11.53;;;6.03;;
20623;SDS011;10471;42.736;23.346;2023-03-15T12:15:47;13.60;;;5.90;;
20623;SDS011;10471;42.736;23.346;2023-03-15T12:18:15;12.97;;;7.27;;
20623;SDS011;10471;42.736;23.346;2023-03-15T12:26:30;10.50;;;5.73;;
20623;SDS011;10471;42.736;23.346;2023-03-15T12:31:23;14.50;;;7.47;;
20623;SDS011;10471;42.736;23.346;2023-03-15T12:33:55;20.73;;;8.00;;
20623;SDS011;10471;42.736;23.346;2023-03-15T12:36:28;14.63;;;6.80;;
20623;SDS011;10471;42.736;23.346;2023-03-15T12:39:28;14.17;;;6.67;;
20623;SDS011;10471;42.736;23.346;2023-03-15T12:42:05;9.30;;;5.37;;
20623;SDS011;10471;42.736;23.346;2023-03-15T12:44:37;7.00;;;5.03;;
20623;SDS011;10471;42.736;23.346;2023-03-15T12:47:04;10.27;;;4.73;;
20623;SDS011;10471;42.736;23.346;2023-03-15T12:49:42;9.23;;;5.70;;
20623;SDS011;10471;42.736;23.346;2023-03-15T12:54:40;8.80;;;6.13;;
20623;SDS011;10471;42.736;23.346;2023-03-15T12:57:11;10.57;;;6.67;;
20623;SDS011;10471;42.736;23.346;2023-03-15T12:59:54;12.63;;;6.00;;
20623;SDS011;10471;42.736;23.346;2023-03-15T13:02:24;14.73;;;7.67;;
20623;SDS011;10471;42.736;23.346;2023-03-15T13:04:56;15.27;;;6.90;;
20623;SDS011;10471;42.736;23.346;2023-03-15T13:07:32;12.70;;;7.10;;
20623;SDS011;10471;42.736;23.346;2023-03-15T13:13:12;16.03;;;8.70;;
20623;SDS011;10471;42.736;23.346;2023-03-15T13:15:52;9.10;;;5.83;;
20623;SDS011;10471;42.736;23.346;2023-03-15T13:18:26;9.83;;;6.47;;
20623;SDS011;10471;42.736;23.346;2023-03-15T13:21:07;15.37;;;6.63;;
20623;SDS011;10471;42.736;23.346;2023-03-15T13:23:42;12.03;;;6.13;;
20623;SDS011;10471;42.736;23.346;2023-03-15T13:29:13;15.03;;;6.70;;
20623;SDS011;10471;42.736;23.346;2023-03-15T13:31:41;13.53;;;6.97;;
20623;SDS011;10471;42.736;23.346;2023-03-15T13:36:47;11.97;;;6.80;;
20623;SDS011;10471;42.736;23.346;2023-03-15T13:39:50;11.43;;;6.60;;
20623;SDS011;10471;42.736;23.346;2023-03-15T13:42:17;14.40;;;6.97;;
20623;SDS011;10471;42.736;23.346;2023-03-15T13:45:00;11.23;;;6.83;;
20623;SDS011;10471;42.736;23.346;2023-03-15T13:47:35;11.57;;;6.53;;
20623;SDS011;10471;42.736;23.346;2023-03-15T13:50:02;15.57;;;6.20;;
20623;SDS011;10471;42.736;23.346;2023-03-15T13:52:29;10.00;;;6.00;;
20623;SDS011;10471;42.736;23.346;2023-03-15T13:54:55;13.17;;;7.57;;
20623;SDS011;10471;42.736;23.346;2023-03-15T13:57:21;16.77;;;6.33;;
20623;SDS011;10471;42.736;23.346;2023-03-15T13:59:57;12.13;;;6.33;;
20623;SDS011;10471;42.736;23.346;2023-03-15T14:05:03;15.40;;;8.03;;
20623;SDS011;10471;42.736;23.346;2023-03-15T14:10:08;10.27;;;5.50;;
20623;SDS011;10471;42.736;23.346;2023-03-15T14:12:45;10.63;;;5.30;;
20623;SDS011;10471;42.736;23.346;2023-03-15T14:15:17;9.20;;;5.40;;
20623;SDS011;10471;42.736;23.346;2023-03-15T14:18:02;11.30;;;6.10;;
20623;SDS011;10471;42.736;23.346;2023-03-15T14:20:34;12.30;;;6.03;;
20623;SDS011;10471;42.736;23.346;2023-03-15T14:23:01;14.63;;;5.63;;
20623;SDS011;10471;42.736;23.346;2023-03-15T14:25:32;8.77;;;5.30;;
20623;SDS011;10471;42.736;23.346;2023-03-15T14:28:00;12.77;;;5.90;;
20623;SDS011;10471;42.736;23.346;2023-03-15T14:30:26;11.87;;;5.47;;
20623;SDS011;10471;42.736;23.346;2023-03-15T14:32:55;12.43;;;6.10;;
20623;SDS011;10471;42.736;23.346;2023-03-15T14:35:23;12.73;;;6.33;;
20623;SDS011;10471;42.736;23.346;2023-03-15T14:40:46;11.07;;;6.57;;
20623;SDS011;10471;42.736;23.346;2023-03-15T14:43:12;13.47;;;5.73;;
20623;SDS011;10471;42.736;23.346;2023-03-15T14:45:39;13.17;;;6.37;;
20623;SDS011;10471;42.736;23.346;2023-03-15T14:48:10;13.43;;;7.13;;
20623;SDS011;10471;42.736;23.346;2023-03-15T14:50:38;16.73;;;9.50;;
20623;SDS011;10471;42.736;23.346;2023-03-15T14:53:05;24.77;;;12.20;;
20623;SDS011;10471;42.736;23.346;2023-03-15T14:55:33;22.13;;;12.70;;
20623;SDS011;10471;42.736;23.346;2023-03-15T14:58:01;21.03;;;10.70;;
20623;SDS011;10471;42.736;23.346;2023-03-15T15:00:34;14.83;;;7.67;;
20623;SDS011;10471;42.736;23.346;2023-03-15T15:03:00;17.73;;;9.83;;
20623;SDS011;10471;42.736;23.346;2023-03-15T15:05:27;26.30;;;13.83;;
20623;SDS011;10471;42.736;23.346;2023-03-15T15:07:56;27.43;;;12.80;;
20623;SDS011;10471;42.736;23.346;2023-03-15T15:10:26;17.80;;;9.80;;
20623;SDS011;10471;42.736;23.346;2023-03-15T15:12:52;17.80;;;7.93;;
20623;SDS011;10471;42.736;23.346;2023-03-15T15:15:18;16.53;;;8.47;;
20623;SDS011;10471;42.736;23.346;2023-03-15T15:17:45;16.10;;;8.73;;
20623;SDS011;10471;42.736;23.346;2023-03-15T15:20:11;18.03;;;9.10;;
20623;SDS011;10471;42.736;23.346;2023-03-15T15:22:40;13.37;;;7.47;;
20623;SDS011;10471;42.736;23.346;2023-03-15T15:25:14;15.17;;;6.10;;
20623;SDS011;10471;42.736;23.346;2023-03-15T15:27:41;11.13;;;7.10;;
20623;SDS011;10471;42.736;23.346;2023-03-15T15:30:14;13.07;;;6.87;;
20623;SDS011;10471;42.736;23.346;2023-03-15T15:32:41;36.53;;;14.43;;